Time;durP1;ratioP1;P1;durP2;ratioP2;P2;SDS_P1;SDS_P2;PMS_P1;PMS_P2;Temp;Humidity;BMP_temperature;BMP_pressure;BME280_temperature;BME280_humidity;BME280_pressure;Samples;Min_cycle;Max_cycle;Signal;HPM_P1;HPM_P2
2022/08/25 00:01:27;;;;;;;1.48;1.38;;;23.90;99.90;;;;;;5032156;28;20605;-57
2022/08/25 00:03:53;;;;;;;1.60;1.42;;;24.00;99.90;;;;;;5033527;28;20238;-56
2022/08/25 00:06:20;;;;;;;1.23;1.13;;;24.00;99.90;;;;;;5033432;28;20175;-57
2022/08/25 00:08:47;;;;;;;1.52;1.10;;;24.00;99.90;;;;;;5033299;28;20211;-57
2022/08/25 00:11:21;;;;;;;1.95;1.30;;;24.00;99.90;;;;;;5032158;28;20170;-56
2022/08/25 00:13:52;;;;;;;1.38;1.20;;;24.00;99.90;;;;;;5033227;28;20198;-57
2022/08/25 00:16:21;;;;;;;1.30;1.20;;;24.00;99.90;;;;;;5033250;28;20171;-57
2022/08/25 00:18:50;;;;;;;1.40;1.30;;;23.90;99.90;;;;;;5032062;28;20172;-57
2022/08/25 00:21:16;;;;;;;1.15;1.05;;;24.00;99.90;;;;;;5033100;28;20163;-57
2022/08/25 00:23:42;;;;;;;1.35;1.25;;;23.90;99.90;;;;;;5033165;28;20517;-57
2022/08/25 00:26:09;;;;;;;1.40;1.10;;;23.90;99.90;;;;;;5033318;28;20168;-57
2022/08/25 00:28:35;;;;;;;1.50;1.20;;;23.80;99.90;;;;;;5033084;28;20277;-58
2022/08/25 00:31:02;;;;;;;1.73;1.30;;;23.80;99.90;;;;;;5032071;28;20172;-57
2022/08/25 00:33:30;;;;;;;1.40;1.30;;;23.70;99.90;;;;;;5033889;28;20168;-56
2022/08/25 00:35:57;;;;;;;1.70;1.50;;;23.70;99.90;;;;;;5037161;28;20537;-57
2022/08/25 00:38:23;;;;;;;1.50;1.40;;;23.70;99.90;;;;;;5036971;28;20306;-57
2022/08/25 00:41:04;;;;;;;1.98;1.50;;;23.70;99.90;;;;;;5037125;28;20177;-56
2022/08/25 00:43:43;;;;;;;1.42;1.23;;;23.60;99.90;;;;;;5037057;28;20180;-57
2022/08/25 00:46:10;;;;;;;1.77;1.55;;;23.50;99.90;;;;;;5037018;28;20167;-57
2022/08/25 00:48:39;;;;;;;1.52;1.40;;;23.50;99.90;;;;;;5036585;28;20212;-55
2022/08/25 00:51:08;;;;;;;1.77;1.42;;;23.50;99.90;;;;;;5037057;28;20164;-56
2022/08/25 00:53:34;;;;;;;1.35;1.25;;;23.50;99.90;;;;;;5035577;28;20690;-57
2022/08/25 00:56:01;;;;;;;2.67;1.25;;;23.50;99.90;;;;;;5052203;28;20517;-56
2022/08/25 00:58:29;;;;;;;2.00;1.65;;;23.40;99.90;;;;;;5036641;28;20590;-57
2022/08/25 01:00:56;;;;;;;3.20;2.13;;;23.40;99.90;;;;;;5036706;28;20164;-56
2022/08/25 01:03:24;;;;;;;2.40;1.58;;;23.60;99.90;;;;;;5036620;28;20641;-57
2022/08/25 01:05:51;;;;;;;2.50;1.40;;;23.50;99.90;;;;;;5036437;28;20160;-56
2022/08/25 01:08:19;;;;;;;2.08;1.23;;;23.40;99.90;;;;;;5036232;28;20212;-56
2022/08/25 01:10:47;;;;;;;1.30;1.20;;;23.40;99.90;;;;;;5036448;28;20621;-57
2022/08/25 01:13:25;;;;;;;2.00;1.80;;;23.40;99.90;;;;;;5036732;28;20172;-56
2022/08/25 01:15:54;;;;;;;1.70;1.52;;;23.30;99.90;;;;;;5036548;28;20167;-58
2022/08/25 01:18:21;;;;;;;2.15;1.40;;;23.30;99.90;;;;;;5036272;28;20221;-57
2022/08/25 01:20:52;;;;;;;1.45;1.33;;;23.30;99.90;;;;;;5051466;28;20633;-57
2022/08/25 01:23:18;;;;;;;2.28;1.52;;;23.20;99.90;;;;;;5036322;28;20179;-57
2022/08/25 01:26:04;;;;;;;1.70;1.60;;;23.20;99.90;;;;;;5036141;28;20171;-57
2022/08/25 01:28:30;;;;;;;1.98;1.55;;;23.20;99.90;;;;;;5035957;28;20243;-57
2022/08/25 01:30:56;;;;;;;2.80;1.90;;;23.10;99.90;;;;;;5036236;28;20211;-55
2022/08/25 01:33:22;;;;;;;1.60;1.50;;;23.10;99.90;;;;;;5036013;28;20179;-57
2022/08/25 01:35:47;;;;;;;1.50;1.30;;;23.00;99.90;;;;;;5035875;28;20636;-57
2022/08/25 01:38:14;;;;;;;1.80;1.63;;;23.00;99.90;;;;;;5035990;28;20172;-57
2022/08/25 01:40:41;;;;;;;1.90;1.80;;;23.00;99.90;;;;;;5035004;28;20168;-57
2022/08/25 01:43:10;;;;;;;2.03;1.67;;;22.90;99.90;;;;;;5035842;28;20187;-58
2022/08/25 01:45:37;;;;;;;1.73;1.50;;;22.80;99.90;;;;;;5035414;28;20164;-56
2022/08/25 01:48:05;;;;;;;1.73;1.50;;;22.80;99.90;;;;;;5035635;28;20196;-56
2022/08/25 01:50:31;;;;;;;1.85;1.75;;;22.80;99.90;;;;;;5035885;28;20161;-57
2022/08/25 01:53:06;;;;;;;1.50;1.40;;;22.70;99.90;;;;;;5035583;28;20201;-57
2022/08/25 01:55:50;;;;;;;1.70;1.60;;;22.80;99.90;;;;;;5035664;28;20198;-57
2022/08/25 01:58:24;;;;;;;2.00;1.50;;;22.70;99.90;;;;;;5034089;28;20556;-57
2022/08/25 02:00:53;;;;;;;2.17;1.70;;;22.70;99.90;;;;;;5034382;28;20200;-56
2022/08/25 02:03:19;;;;;;;1.63;1.38;;;22.70;99.90;;;;;;5035498;28;20172;-57
2022/08/25 02:05:45;;;;;;;2.15;1.70;;;22.60;99.90;;;;;;5034288;28;20180;-57
2022/08/25 02:08:11;;;;;;;1.55;1.40;;;22.50;99.90;;;;;;5035293;28;20203;-57
2022/08/25 02:10:37;;;;;;;1.95;1.58;;;22.50;99.90;;;;;;5035261;28;20172;-56
2022/08/25 02:13:05;;;;;;;1.95;1.77;;;22.50;99.90;;;;;;5035515;28;20552;-56
2022/08/25 02:15:31;;;;;;;2.10;1.63;;;22.40;99.90;;;;;;5035352;28;20164;-57
2022/08/25 02:17:57;;;;;;;1.70;1.25;;;22.30;99.90;;;;;;5034070;28;20621;-57
2022/08/25 02:20:23;;;;;;;1.67;1.58;;;22.30;99.90;;;;;;5033847;28;20179;-57
2022/08/25 02:22:50;;;;;;;1.80;1.52;;;22.30;99.90;;;;;;5035062;28;20179;-56
2022/08/25 02:25:17;;;;;;;1.70;1.60;;;22.30;99.90;;;;;;5034873;28;20172;-57
2022/08/25 02:27:44;;;;;;;1.70;1.60;;;22.30;99.90;;;;;;5034895;28;20168;-56
2022/08/25 02:30:15;;;;;;;1.77;1.60;;;22.30;99.90;;;;;;5034996;28;20263;-57
2022/08/25 02:32:41;;;;;;;2.22;1.67;;;22.30;99.90;;;;;;5034908;28;20171;-56
2022/08/25 02:35:07;;;;;;;2.03;1.83;;;22.20;99.90;;;;;;5033567;28;20537;-56
2022/08/25 02:37:34;;;;;;;2.17;1.70;;;22.30;99.90;;;;;;5033538;28;20297;-57
2022/08/25 02:40:00;;;;;;;1.80;1.70;;;22.30;99.90;;;;;;5034644;28;20180;-55
2022/08/25 02:42:26;;;;;;;2.05;1.77;;;22.30;99.90;;;;;;5034605;28;20251;-56
2022/08/25 02:44:52;;;;;;;2.13;1.70;;;22.20;99.90;;;;;;5034782;28;20625;-57
2022/08/25 02:47:19;;;;;;;1.60;1.45;;;22.20;99.90;;;;;;5034659;28;20164;-57
2022/08/25 02:49:45;;;;;;;2.20;1.90;;;22.20;99.90;;;;;;5034448;28;20592;-57
2022/08/25 02:52:10;;;;;;;2.30;1.42;;;22.10;99.90;;;;;;5034466;28;20178;-57
2022/08/25 02:54:36;;;;;;;2.15;1.80;;;22.00;99.90;;;;;;5034605;28;20172;-55
2022/08/25 02:57:02;;;;;;;2.50;1.90;;;22.10;99.90;;;;;;5032645;28;20203;-57
2022/08/25 02:59:28;;;;;;;2.22;1.75;;;22.10;99.90;;;;;;5034258;28;20255;-57
2022/08/25 03:01:54;;;;;;;2.15;1.65;;;22.10;99.90;;;;;;5033064;28;20259;-57
2022/08/25 03:04:20;;;;;;;1.90;1.63;;;22.10;99.90;;;;;;5034560;28;20263;-57
2022/08/25 03:06:46;;;;;;;3.05;1.70;;;22.10;99.90;;;;;;5034121;28;20168;-57
2022/08/25 03:09:12;;;;;;;2.65;1.65;;;22.10;99.90;;;;;;5033985;28;20236;-56
2022/08/25 03:11:38;;;;;;;1.88;1.60;;;22.00;99.90;;;;;;5034246;28;20171;-56
2022/08/25 03:14:09;;;;;;;1.92;1.73;;;22.00;99.90;;;;;;5032970;28;20176;-56
2022/08/25 03:16:36;;;;;;;2.20;2.00;;;22.00;99.90;;;;;;5032979;28;20183;-57
2022/08/25 03:19:01;;;;;;;2.05;1.85;;;21.90;99.90;;;;;;5033964;28;20636;-56
2022/08/25 03:21:28;;;;;;;2.15;1.58;;;21.90;99.90;;;;;;5016126;28;20222;-56
2022/08/25 03:23:55;;;;;;;1.90;1.65;;;22.00;99.90;;;;;;5049682;28;20180;-57
2022/08/25 03:29:06;;;;;;;2.60;2.13;;;22.00;99.90;;;;;;5033729;28;20223;-57
2022/08/25 03:31:33;;;;;;;2.33;2.10;;;21.90;99.90;;;;;;5032889;28;20172;-57
2022/08/25 03:33:59;;;;;;;2.17;1.77;;;21.90;99.90;;;;;;5033694;28;20175;-57
2022/08/25 03:36:26;;;;;;;2.70;1.77;;;22.00;99.90;;;;;;5033960;28;20183;-56
2022/08/25 03:38:52;;;;;;;2.75;2.00;;;21.90;99.90;;;;;;5033517;28;20186;-56
2022/08/25 03:41:21;;;;;;;2.30;2.00;;;22.00;99.90;;;;;;5032481;28;20508;-56
2022/08/25 03:43:48;;;;;;;2.45;1.75;;;21.90;99.90;;;;;;5033643;28;20167;-56
2022/08/25 03:46:36;;;;;;;1.83;1.60;;;21.90;99.90;;;;;;5033564;28;20506;-57
2022/08/25 03:49:04;;;;;;;2.42;1.75;;;21.90;99.90;;;;;;5033564;28;20243;-56
2022/08/25 03:51:36;;;;;;;2.33;2.03;;;21.80;99.90;;;;;;5033571;28;20179;-57
2022/08/25 03:54:03;;;;;;;2.20;2.00;;;21.70;99.90;;;;;;5033616;28;20160;-57
2022/08/25 03:56:28;;;;;;;2.30;2.10;;;21.60;99.90;;;;;;5032324;28;20168;-57
2022/08/25 03:58:55;;;;;;;2.38;2.03;;;21.60;99.90;;;;;;5015709;28;20184;-58
2022/08/25 04:01:22;;;;;;;2.70;2.10;;;21.60;99.90;;;;;;5033276;28;20164;-57
2022/08/25 04:03:47;;;;;;;2.25;2.05;;;21.50;99.90;;;;;;5033492;28;20168;-57
2022/08/25 04:06:15;;;;;;;3.47;1.80;;;21.50;99.90;;;;;;5033272;28;20209;-57
2022/08/25 04:08:41;;;;;;;2.20;1.95;;;21.50;99.90;;;;;;5032063;28;20195;-57
2022/08/25 04:11:14;;;;;;;2.22;1.98;;;21.50;99.90;;;;;;5033233;28;20179;-57
2022/08/25 04:13:43;;;;;;;2.70;1.83;;;21.40;99.90;;;;;;5033211;28;20255;-57
2022/08/25 04:16:20;;;;;;;3.05;2.22;;;21.50;99.90;;;;;;5033014;28;20168;-57
2022/08/25 04:18:48;;;;;;;2.88;2.00;;;21.40;99.90;;;;;;5033068;28;20295;-56
2022/08/25 04:21:15;;;;;;;2.10;1.80;;;21.40;99.90;;;;;;5031112;28;20176;-56
2022/08/25 04:23:44;;;;;;;3.00;2.22;;;21.30;99.90;;;;;;5030786;28;20184;-55
2022/08/25 04:26:24;;;;;;;2.80;2.10;;;21.30;99.90;;;;;;5030849;28;20164;-56
2022/08/25 04:28:49;;;;;;;2.13;1.92;;;21.30;99.90;;;;;;5031012;28;20215;-56
2022/08/25 04:31:17;;;;;;;2.60;2.33;;;21.30;99.90;;;;;;5029800;28;20183;-56
2022/08/25 04:33:43;;;;;;;2.80;2.22;;;21.30;99.90;;;;;;5031224;28;20226;-56
2022/08/25 04:36:10;;;;;;;2.72;2.03;;;21.20;99.90;;;;;;5031466;28;20564;-57
2022/08/25 04:38:37;;;;;;;2.28;2.08;;;21.20;99.90;;;;;;5032882;28;20187;-56
2022/08/25 04:41:05;;;;;;;2.80;2.25;;;21.10;99.90;;;;;;5033204;28;20222;-57
2022/08/25 04:43:33;;;;;;;2.65;2.45;;;21.10;99.90;;;;;;5033030;28;20226;-57
2022/08/25 04:45:59;;;;;;;3.03;2.20;;;21.10;99.90;;;;;;5033005;28;20164;-57
2022/08/25 04:48:25;;;;;;;2.67;2.38;;;21.00;99.90;;;;;;5031720;28;20200;-56
2022/08/25 04:50:51;;;;;;;2.72;2.00;;;21.10;99.90;;;;;;5032837;28;20176;-57
2022/08/25 04:53:17;;;;;;;2.35;2.00;;;21.10;99.90;;;;;;5031659;28;20560;-57
2022/08/25 04:55:45;;;;;;;2.33;1.92;;;21.10;99.90;;;;;;5033331;28;20564;-58
2022/08/25 04:58:12;;;;;;;2.53;2.00;;;21.00;99.90;;;;;;5032914;28;20176;-57
2022/08/25 05:00:39;;;;;;;2.67;2.28;;;21.00;99.90;;;;;;5032897;28;20168;-51
2022/08/25 05:03:05;;;;;;;2.83;1.85;;;20.90;99.90;;;;;;5032553;28;20572;-57
2022/08/25 05:05:34;;;;;;;2.40;1.98;;;21.00;99.90;;;;;;5031187;28;20596;-58
2022/08/25 05:08:00;;;;;;;2.35;2.15;;;21.00;99.90;;;;;;5031518;28;20176;-57
2022/08/25 05:10:26;;;;;;;2.85;2.13;;;21.00;99.90;;;;;;5032813;28;20180;-58
2022/08/25 05:12:52;;;;;;;2.25;2.05;;;20.90;99.90;;;;;;5032882;28;20176;-57
2022/08/25 05:18:02;;;;;;;2.13;1.85;;;21.00;99.90;;;;;;5031868;28;20267;-57
2022/08/25 05:20:29;;;;;;;2.95;1.88;;;21.00;99.90;;;;;;5034306;28;20212;-57
2022/08/25 05:22:56;;;;;;;2.53;1.98;;;21.00;99.90;;;;;;5034959;28;20601;-57
2022/08/25 05:25:22;;;;;;;1.70;1.60;;;21.00;99.90;;;;;;5036012;28;20176;-57
2022/08/25 05:27:47;;;;;;;2.13;2.00;;;21.10;99.90;;;;;;5034666;28;20181;-57
2022/08/25 05:30:13;;;;;;;2.35;1.90;;;21.10;99.90;;;;;;5034854;28;20222;-57
2022/08/25 05:32:39;;;;;;;2.33;2.00;;;21.10;99.90;;;;;;5036003;28;20187;-57
2022/08/25 05:35:05;;;;;;;2.63;2.08;;;21.20;99.90;;;;;;5035820;28;20199;-59
2022/08/25 05:37:31;;;;;;;2.15;1.90;;;21.20;99.90;;;;;;5035320;28;20207;-57
2022/08/25 05:39:57;;;;;;;2.13;1.90;;;21.20;99.90;;;;;;5034373;28;20616;-57
2022/08/25 05:42:23;;;;;;;2.78;1.85;;;21.30;99.90;;;;;;5034735;28;20185;-57
2022/08/25 05:44:49;;;;;;;2.25;1.85;;;21.40;99.90;;;;;;5018082;28;20212;-57
2022/08/25 05:47:15;;;;;;;2.33;2.10;;;21.40;99.90;;;;;;5034409;28;20207;-57
2022/08/25 05:49:41;;;;;;;2.95;2.00;;;21.40;99.90;;;;;;5035510;28;20207;-57
2022/08/25 05:52:07;;;;;;;2.70;1.90;;;21.50;99.90;;;;;;5034286;28;20629;-58
2022/08/25 05:54:32;;;;;;;2.13;1.92;;;21.60;99.90;;;;;;5051013;28;20267;-57
2022/08/25 05:56:59;;;;;;;2.13;1.92;;;21.70;99.90;;;;;;5035566;28;20183;-57
2022/08/25 05:59:25;;;;;;;2.58;2.05;;;21.70;99.90;;;;;;5035395;28;20275;-57
2022/08/25 06:04:35;;;;;;;1.83;1.60;;;21.90;99.90;;;;;;5035585;28;20194;-57
2022/08/25 06:07:00;;;;;;;2.22;1.90;;;21.90;99.90;;;;;;5034344;28;20623;-57
2022/08/25 06:09:26;;;;;;;2.00;1.42;;;22.00;99.90;;;;;;5035446;28;20629;-57
2022/08/25 06:11:52;;;;;;;1.80;1.63;;;22.10;99.90;;;;;;5035337;28;20223;-57
2022/08/25 06:14:19;;;;;;;2.15;1.85;;;22.10;99.90;;;;;;5035169;28;20176;-57
2022/08/25 06:16:45;;;;;;;2.03;1.73;;;22.10;99.90;;;;;;5035478;28;20220;-57
2022/08/25 06:19:10;;;;;;;1.83;1.73;;;22.00;99.90;;;;;;5034133;28;20203;-58
2022/08/25 06:21:39;;;;;;;1.70;1.60;;;22.00;99.90;;;;;;5035197;28;20633;-57
2022/08/25 06:24:06;;;;;;;2.08;1.85;;;22.10;99.90;;;;;;5034066;28;20499;-57
2022/08/25 06:26:33;;;;;;;1.98;1.70;;;22.40;99.90;;;;;;5034978;28;20183;-58
2022/08/25 06:28:59;;;;;;;1.73;1.63;;;22.60;99.90;;;;;;5033545;28;20223;-57
2022/08/25 06:31:24;;;;;;;3.28;1.90;;;22.70;99.90;;;;;;5034050;28;20172;-57
2022/08/25 06:33:51;;;;;;;1.98;1.73;;;22.90;99.90;;;;;;5034984;28;20212;-57
2022/08/25 06:36:18;;;;;;;2.28;1.60;;;23.00;99.90;;;;;;5033728;28;20267;-57
2022/08/25 06:38:44;;;;;;;3.63;2.10;;;23.10;99.90;;;;;;5034709;28;20222;-57
2022/08/25 06:41:11;;;;;;;2.17;1.50;;;23.30;99.90;;;;;;5034784;28;20183;-57
2022/08/25 06:43:38;;;;;;;1.80;1.60;;;23.50;99.90;;;;;;5034502;28;20172;-57
2022/08/25 06:46:12;;;;;;;2.67;1.95;;;23.70;99.90;;;;;;5034660;28;20172;-57
2022/08/25 06:48:38;;;;;;;2.75;1.70;;;23.80;99.90;;;;;;5034639;28;20219;-57
2022/08/25 06:51:09;;;;;;;2.85;1.55;;;23.80;99.90;;;;;;5034492;28;20210;-57
2022/08/25 06:53:36;;;;;;;1.67;1.42;;;23.80;99.90;;;;;;5034436;28;20168;-57
2022/08/25 06:56:03;;;;;;;2.00;1.33;;;24.00;99.90;;;;;;5034575;28;20172;-58
2022/08/25 06:58:29;;;;;;;1.58;1.48;;;24.20;99.90;;;;;;5049812;28;20741;-57
2022/08/25 07:00:54;;;;;;;1.88;1.48;;;24.30;99.90;;;;;;5033193;28;20275;-57
2022/08/25 07:03:20;;;;;;;2.22;1.58;;;24.50;99.90;;;;;;5033179;28;20210;-58
2022/08/25 07:05:53;;;;;;;1.95;1.65;;;24.50;99.90;;;;;;5034468;28;20245;-57
2022/08/25 07:08:19;;;;;;;2.50;2.30;;;24.40;99.90;;;;;;5034094;28;20172;-57
2022/08/25 07:10:45;;;;;;;1.88;1.50;;;24.20;99.90;;;;;;5034038;28;20251;-58
2022/08/25 07:13:12;;;;;;;1.50;1.40;;;24.10;99.90;;;;;;5033095;28;20180;-57
2022/08/25 07:15:38;;;;;;;2.20;1.60;;;24.00;99.90;;;;;;5033994;28;20172;-57
2022/08/25 07:18:05;;;;;;;1.50;1.40;;;24.10;99.90;;;;;;5034054;28;20265;-58
2022/08/25 07:20:32;;;;;;;1.63;1.30;;;24.00;99.90;;;;;;5034056;28;20263;-57
2022/08/25 07:22:58;;;;;;;2.53;1.85;;;24.10;99.90;;;;;;5033945;28;20641;-58
2022/08/25 07:25:23;;;;;;;2.33;1.48;;;24.10;99.90;;;;;;5049119;28;20182;-58
2022/08/25 07:27:49;;;;;;;1.48;1.35;;;24.10;99.90;;;;;;5032695;28;20183;-57
2022/08/25 07:30:16;;;;;;;1.55;1.30;;;24.00;99.90;;;;;;5032762;28;20222;-57
2022/08/25 07:32:42;;;;;;;1.35;1.25;;;24.00;99.90;;;;;;5049141;28;20184;-58
2022/08/25 07:35:14;;;;;;;1.90;1.40;;;24.10;99.90;;;;;;5032724;28;20625;-58
2022/08/25 07:37:42;;;;;;;2.15;1.20;;;24.20;99.90;;;;;;5033544;28;20172;-58
2022/08/25 07:40:10;;;;;;;1.67;1.58;;;24.30;99.90;;;;;;5033588;28;20186;-57
2022/08/25 07:42:36;;;;;;;1.67;1.50;;;24.40;99.90;;;;;;5033276;28;20180;-57
2022/08/25 07:45:04;;;;;;;1.88;1.38;;;24.50;99.90;;;;;;5033609;28;20648;-57
2022/08/25 07:47:30;;;;;;;2.47;1.50;;;24.60;99.90;;;;;;5033614;28;20168;-57
2022/08/25 07:49:56;;;;;;;2.90;1.60;;;24.90;99.90;;;;;;5032200;28;20243;-58
2022/08/25 07:52:22;;;;;;;1.88;1.42;;;25.10;99.90;;;;;;5033194;28;20230;-57
2022/08/25 07:54:48;;;;;;;1.48;1.33;;;25.30;99.90;;;;;;5032407;28;20180;-55
2022/08/25 07:57:13;;;;;;;2.45;1.55;;;25.40;99.90;;;;;;5033432;28;20258;-57
2022/08/25 07:59:41;;;;;;;3.30;1.30;;;25.50;99.90;;;;;;5033742;28;20607;-58
2022/08/25 08:02:08;;;;;;;3.42;1.92;;;25.60;99.90;;;;;;5033228;28;20176;-58
2022/08/25 08:04:35;;;;;;;1.40;1.30;;;25.80;99.90;;;;;;5033296;28;20182;-58
2022/08/25 08:07:01;;;;;;;2.03;1.40;;;25.90;99.90;;;;;;5031988;28;20211;-58
2022/08/25 08:09:29;;;;;;;4.22;1.50;;;26.00;99.90;;;;;;5033306;28;20328;-57
2022/08/25 08:11:56;;;;;;;1.33;1.05;;;26.00;99.90;;;;;;5033268;28;20188;-57
2022/08/25 08:14:22;;;;;;;1.83;1.30;;;26.10;99.90;;;;;;5032080;28;20178;-57
2022/08/25 08:16:48;;;;;;;2.78;1.35;;;26.20;99.90;;;;;;5032007;28;20172;-57
2022/08/25 08:19:17;;;;;;;1.40;1.30;;;26.30;99.90;;;;;;5031909;28;20283;-57
2022/08/25 08:21:43;;;;;;;1.98;1.30;;;26.40;99.90;;;;;;5033317;28;20203;-58
2022/08/25 08:24:09;;;;;;;1.63;1.17;;;26.70;99.90;;;;;;5031987;28;20214;-57
2022/08/25 08:26:34;;;;;;;2.70;1.40;;;26.80;99.90;;;;;;5033017;28;20537;-57
2022/08/25 08:29:00;;;;;;;3.42;1.45;;;27.00;99.90;;;;;;5031638;28;20311;-57
2022/08/25 08:31:27;;;;;;;1.92;1.30;;;27.20;99.80;;;;;;5032971;28;20176;-57
2022/08/25 08:33:55;;;;;;;1.60;1.50;;;27.40;99.90;;;;;;5032951;28;20171;-58
2022/08/25 08:36:21;;;;;;;3.00;1.40;;;27.60;99.20;;;;;;5033301;28;20187;-58
2022/08/25 08:38:47;;;;;;;1.60;1.15;;;27.60;98.70;;;;;;5031857;28;20238;-58
2022/08/25 08:44:35;;;;;;;2.13;1.13;;;28.10;98.20;;;;;;5032835;28;20238;-57
2022/08/25 08:47:31;;;;;;;1.55;1.13;;;28.10;97.90;;;;;;5032974;28;20203;-57
2022/08/25 08:50:25;;;;;;;2.67;1.30;;;28.10;97.40;;;;;;5022322;28;20228;-57
2022/08/25 08:53:00;;;;;;;1.63;0.90;;;28.10;96.60;;;;;;5032787;28;20549;-57
2022/08/25 08:55:39;;;;;;;1.42;1.13;;;28.20;96.80;;;;;;5051523;28;20176;-57
2022/08/25 08:58:27;;;;;;;1.85;1.25;;;28.30;97.10;;;;;;5036761;28;20266;-58
2022/08/25 09:00:57;;;;;;;1.40;0.98;;;28.50;96.60;;;;;;5036311;28;20188;-58
2022/08/25 09:03:38;;;;;;;1.70;1.40;;;28.80;96.70;;;;;;5035245;28;20229;-58
2022/08/25 09:06:17;;;;;;;1.45;0.90;;;28.70;95.60;;;;;;5036631;28;20318;-58
2022/08/25 09:08:43;;;;;;;3.58;1.20;;;28.90;96.00;;;;;;5036331;28;20211;-57
2022/08/25 09:11:47;;;;;;;2.17;1.10;;;29.10;96.00;;;;;;5035126;28;20212;-58
2022/08/25 09:14:19;;;;;;;1.20;1.10;;;29.30;95.00;;;;;;5031256;28;20220;-57
2022/08/25 09:16:53;;;;;;;1.17;0.98;;;29.50;94.70;;;;;;5035374;28;20176;-57
2022/08/25 09:19:39;;;;;;;1.23;1.00;;;29.40;94.40;;;;;;5036246;28;20265;-58
2022/08/25 09:22:11;;;;;;;1.35;1.15;;;29.40;94.30;;;;;;5051495;28;20184;-58
2022/08/25 09:24:54;;;;;;;1.15;1.00;;;29.40;94.20;;;;;;5036240;28;20568;-58
2022/08/25 09:27:40;;;;;;;1.02;1.02;;;29.60;94.70;;;;;;5036060;28;20208;-58
2022/08/25 09:30:08;;;;;;;0.95;0.95;;;29.90;93.90;;;;;;5035910;28;20226;-58
2022/08/25 09:32:44;;;;;;;1.15;0.93;;;29.70;94.50;;;;;;5036159;28;20176;-58
2022/08/25 09:35:24;;;;;;;1.73;1.23;;;29.70;94.30;;;;;;5036124;28;20179;-57
2022/08/25 09:37:56;;;;;;;1.45;1.00;;;29.90;94.10;;;;;;5035974;28;20255;-57
2022/08/25 09:40:23;;;;;;;1.35;1.25;;;29.70;94.50;;;;;;5035842;28;20186;-58
2022/08/25 09:42:52;;;;;;;1.38;1.27;;;29.80;94.60;;;;;;5034407;28;20180;-57
2022/08/25 09:45:33;;;;;;;1.67;1.00;;;30.10;94.30;;;;;;5036145;28;20183;-58
2022/08/25 09:47:59;;;;;;;1.13;0.93;;;30.50;93.40;;;;;;5034653;28;20270;-58
2022/08/25 09:50:31;;;;;;;1.77;0.95;;;30.80;93.00;;;;;;5051013;28;20310;-57
2022/08/25 09:53:12;;;;;;;1.05;0.93;;;31.10;93.20;;;;;;5034405;28;20164;-57
2022/08/25 09:55:41;;;;;;;2.00;1.33;;;31.10;92.30;;;;;;5034638;28;20172;-58
2022/08/25 09:58:21;;;;;;;1.20;1.02;;;31.10;92.50;;;;;;5035728;28;20272;-58
2022/08/25 10:01:02;;;;;;;1.77;1.00;;;31.10;91.60;;;;;;5035533;28;20233;-58
2022/08/25 10:03:29;;;;;;;2.92;1.20;;;31.30;92.10;;;;;;5035396;28;20537;-58
2022/08/25 10:05:57;;;;;;;1.02;0.93;;;31.40;92.00;;;;;;5033890;28;20180;-58
2022/08/25 10:08:44;;;;;;;1.60;1.13;;;31.40;92.10;;;;;;5035362;28;20183;-58
2022/08/25 10:11:27;;;;;;;1.05;0.80;;;31.50;91.50;;;;;;5035294;28;20172;-58
2022/08/25 10:14:02;;;;;;;1.33;1.00;;;31.50;91.60;;;;;;5035191;28;20172;-57
2022/08/25 10:16:31;;;;;;;1.42;1.13;;;31.70;91.60;;;;;;5035416;28;20168;-57
2022/08/25 10:19:09;;;;;;;1.33;0.98;;;32.00;91.00;;;;;;5035203;28;20183;-57
2022/08/25 10:21:38;;;;;;;3.75;1.35;;;32.00;91.40;;;;;;5035194;28;20262;-58
2022/08/25 10:24:04;;;;;;;0.98;0.90;;;32.20;91.00;;;;;;5035016;28;20179;-57
2022/08/25 10:26:52;;;;;;;3.95;1.10;;;32.00;88.80;;;;;;5033701;28;20676;-57
2022/08/25 10:29:23;;;;;;;1.02;1.00;;;32.00;90.50;;;;;;5034902;28;20211;-57
2022/08/25 10:31:57;;;;;;;0.98;0.98;;;32.20;90.20;;;;;;5035276;28;20668;-57
2022/08/25 10:34:46;;;;;;;1.52;1.00;;;32.30;90.10;;;;;;5034869;28;20172;-58
2022/08/25 10:37:42;;;;;;;1.02;0.90;;;32.30;88.10;;;;;;5033548;28;20596;-57
2022/08/25 10:40:28;;;;;;;1.00;0.90;;;32.50;87.00;;;;;;5034834;28;20641;-57
2022/08/25 10:43:22;;;;;;;1.52;1.00;;;32.40;88.30;;;;;;5034646;28;20175;-57
2022/08/25 10:45:56;;;;;;;1.00;0.90;;;32.20;88.40;;;;;;5035004;28;20255;-57
2022/08/25 10:48:39;;;;;;;1.20;1.10;;;32.30;88.60;;;;;;5035066;28;20259;-57
2022/08/25 10:51:30;;;;;;;1.35;0.98;;;32.40;85.80;;;;;;5034512;28;20240;-57
2022/08/25 10:54:05;;;;;;;1.17;0.90;;;32.40;85.70;;;;;;5023929;28;20192;-58
2022/08/25 10:56:39;;;;;;;1.08;0.82;;;32.50;85.50;;;;;;5034743;28;20509;-58
2022/08/25 10:59:25;;;;;;;1.73;1.10;;;32.40;85.30;;;;;;5034395;28;20188;-58
2022/08/25 11:02:12;;;;;;;0.70;0.70;;;32.50;84.30;;;;;;5034041;28;20274;-57
2022/08/25 11:04:58;;;;;;;1.10;0.90;;;32.60;84.50;;;;;;5034441;28;20609;-57
2022/08/25 11:07:34;;;;;;;1.00;0.90;;;32.60;84.00;;;;;;5034304;28;20191;-57
2022/08/25 11:10:09;;;;;;;1.13;0.90;;;32.60;83.20;;;;;;5034047;28;20287;-57
2022/08/25 11:12:41;;;;;;;1.10;1.00;;;32.80;81.10;;;;;;5034212;28;20183;-58
2022/08/25 11:15:11;;;;;;;1.08;1.00;;;32.80;81.00;;;;;;5034255;28;20168;-58
2022/08/25 11:17:40;;;;;;;1.65;0.90;;;32.90;81.60;;;;;;5032108;28;20207;-57
2022/08/25 11:20:16;;;;;;;1.52;0.90;;;32.90;80.80;;;;;;5033771;28;20206;-57
2022/08/25 11:22:50;;;;;;;0.90;0.85;;;33.00;82.40;;;;;;5033906;28;20255;-57
2022/08/25 11:25:31;;;;;;;0.75;0.70;;;33.10;79.70;;;;;;5033865;28;20203;-57
2022/08/25 11:28:22;;;;;;;1.52;0.90;;;33.30;79.00;;;;;;5033817;28;20232;-58
2022/08/25 11:30:51;;;;;;;0.90;0.75;;;33.30;78.20;;;;;;5033822;28;20180;-57
2022/08/25 11:33:18;;;;;;;1.17;0.88;;;33.40;78.70;;;;;;5032425;28;20176;-57
2022/08/25 11:35:57;;;;;;;0.65;0.65;;;33.00;76.80;;;;;;5033903;28;20172;-57
2022/08/25 11:38:25;;;;;;;1.42;0.70;;;33.10;75.70;;;;;;5033910;28;20213;-58
2022/08/25 11:41:02;;;;;;;1.25;1.00;;;33.20;77.10;;;;;;5033711;28;20171;-57
2022/08/25 11:44:06;;;;;;;1.05;0.95;;;33.20;73.10;;;;;;5033550;28;20551;-58
2022/08/25 11:46:39;;;;;;;1.02;0.98;;;33.20;74.40;;;;;;5023192;28;20183;-57
2022/08/25 11:49:24;;;;;;;1.08;0.75;;;33.00;75.20;;;;;;5033439;28;20207;-58
2022/08/25 11:51:50;;;;;;;0.98;0.90;;;32.90;75.20;;;;;;5033340;28;20176;-57
2022/08/25 11:54:38;;;;;;;1.00;0.70;;;32.80;75.00;;;;;;5033593;28;20183;-57
2022/08/25 11:57:21;;;;;;;0.70;0.70;;;32.80;73.90;;;;;;5033595;28;20254;-57
2022/08/25 11:59:50;;;;;;;1.33;1.00;;;32.70;75.80;;;;;;5033695;28;20227;-57
2022/08/25 12:02:49;;;;;;;1.00;0.90;;;32.60;76.20;;;;;;5033496;28;20234;-57
2022/08/25 12:05:17;;;;;;;0.80;0.80;;;32.50;74.60;;;;;;5033457;28;20167;-57
2022/08/25 12:07:46;;;;;;;1.25;0.88;;;32.40;76.60;;;;;;5033300;28;20192;-58
2022/08/25 12:10:24;;;;;;;0.80;0.77;;;32.10;73.10;;;;;;5033183;28;20200;-57
2022/08/25 12:13:41;;;;;;;0.98;0.88;;;32.30;74.20;;;;;;5033275;28;20183;-57
2022/08/25 12:16:36;;;;;;;1.73;0.77;;;32.60;72.50;;;;;;5048672;28;20229;-57
2022/08/25 12:19:32;;;;;;;0.82;0.82;;;32.80;73.30;;;;;;5033220;28;20176;-57
2022/08/25 12:22:18;;;;;;;0.63;0.63;;;33.00;74.00;;;;;;5033225;28;20183;-57
2022/08/25 12:24:43;;;;;;;0.70;0.70;;;33.30;73.80;;;;;;5033120;28;20190;-57
2022/08/25 12:27:27;;;;;;;0.80;0.80;;;33.40;73.60;;;;;;5033104;28;20630;-57
2022/08/25 12:30:04;;;;;;;0.80;0.80;;;33.50;72.80;;;;;;5037312;28;20215;-57
2022/08/25 12:32:39;;;;;;;1.00;0.70;;;33.70;71.90;;;;;;5037197;28;20180;-57
2022/08/25 12:35:28;;;;;;;1.00;1.00;;;33.80;72.40;;;;;;5037124;28;20213;-58
2022/08/25 12:38:14;;;;;;;0.90;0.90;;;33.90;69.40;;;;;;5036914;28;20171;-57
2022/08/25 12:40:42;;;;;;;1.25;1.00;;;34.00;73.00;;;;;;5037112;28;20171;-57
2022/08/25 12:43:24;;;;;;;1.52;1.30;;;34.10;71.20;;;;;;5036995;28;20210;-58
2022/08/25 12:45:53;;;;;;;2.03;1.83;;;33.40;79.80;;;;;;5036966;28;20211;-57
2022/08/25 12:48:28;;;;;;;3.22;2.17;;;33.00;82.90;;;;;;5036709;28;20170;-59
2022/08/25 12:50:56;;;;;;;3.35;2.70;;;32.50;83.40;;;;;;5036926;28;20195;-58
2022/08/25 12:53:34;;;;;;;3.28;2.33;;;32.00;85.90;;;;;;5036794;28;20191;-59
2022/08/25 12:56:04;;;;;;;2.30;2.10;;;31.80;87.50;;;;;;5036580;28;20197;-58
2022/08/25 12:58:48;;;;;;;3.45;2.50;;;31.30;87.80;;;;;;5036693;28;20643;-57
2022/08/25 13:01:46;;;;;;;4.25;3.00;;;30.70;87.90;;;;;;5036723;28;20172;-57
2022/08/25 13:04:21;;;;;;;3.40;2.22;;;30.40;90.00;;;;;;5036628;28;20180;-58
2022/08/25 13:07:03;;;;;;;2.70;2.50;;;30.00;90.50;;;;;;5036561;28;20172;-58
2022/08/25 13:09:57;;;;;;;3.92;3.00;;;29.90;90.80;;;;;;5036330;28;20257;-58
2022/08/25 13:12:36;;;;;;;3.67;3.08;;;29.60;91.20;;;;;;5036342;28;20625;-58
2022/08/25 13:15:03;;;;;;;3.50;2.55;;;29.50;91.30;;;;;;5035235;28;20179;-57
2022/08/25 13:17:34;;;;;;;3.75;3.35;;;29.40;91.90;;;;;;5036233;28;20175;-58
2022/08/25 13:20:13;;;;;;;2.78;2.30;;;29.30;91.20;;;;;;5036421;28;20172;-57